sensor_id;sensor_type;location;lat;lon;timestamp;temperature;humidity
23156;DHT22;11746;50.876;4.246;2022-11-15T00:00:47;11.80;99.90
23156;DHT22;11746;50.876;4.246;2022-11-15T00:03:21;11.80;99.90
23156;DHT22;11746;50.876;4.246;2022-11-15T00:05:48;11.80;99.90
23156;DHT22;11746;50.876;4.246;2022-11-15T00:08:13;11.70;99.90
23156;DHT22;11746;50.876;4.246;2022-11-15T00:10:39;11.80;99.90
23156;DHT22;11746;50.876;4.246;2022-11-15T00:13:14;11.70;99.90
23156;DHT22;11746;50.876;4.246;2022-11-15T00:15:41;11.80;99.90
23156;DHT22;11746;50.876;4.246;2022-11-15T00:18:12;11.80;99.90
23156;DHT22;11746;50.876;4.246;2022-11-15T00:20:38;11.90;99.90
23156;DHT22;11746;50.876;4.246;2022-11-15T00:23:04;11.80;99.90
23156;DHT22;11746;50.876;4.246;2022-11-15T00:25:31;11.80;99.90
23156;DHT22;11746;50.876;4.246;2022-11-15T00:27:58;11.80;99.90
23156;DHT22;11746;50.876;4.246;2022-11-15T00:30:28;11.80;99.90
23156;DHT22;11746;50.876;4.246;2022-11-15T00:32:54;11.80;99.90
23156;DHT22;11746;50.876;4.246;2022-11-15T00:35:20;11.80;99.90
23156;DHT22;11746;50.876;4.246;2022-11-15T00:37:46;11.80;99.90
23156;DHT22;11746;50.876;4.246;2022-11-15T00:40:13;11.80;99.90
23156;DHT22;11746;50.876;4.246;2022-11-15T00:42:39;11.80;99.90
23156;DHT22;11746;50.876;4.246;2022-11-15T00:45:05;11.80;99.90
23156;DHT22;11746;50.876;4.246;2022-11-15T00:47:32;11.80;99.90
23156;DHT22;11746;50.876;4.246;2022-11-15T00:49:57;11.80;99.90
23156;DHT22;11746;50.876;4.246;2022-11-15T00:52:23;11.90;99.90
23156;DHT22;11746;50.876;4.246;2022-11-15T00:54:49;12.00;99.90
23156;DHT22;11746;50.876;4.246;2022-11-15T00:57:15;12.00;99.90
23156;DHT22;11746;50.876;4.246;2022-11-15T00:59:41;12.20;99.90
23156;DHT22;11746;50.876;4.246;2022-11-15T01:02:07;12.10;99.90
23156;DHT22;11746;50.876;4.246;2022-11-15T01:04:33;12.10;99.90
23156;DHT22;11746;50.876;4.246;2022-11-15T01:07:01;12.10;99.90
23156;DHT22;11746;50.876;4.246;2022-11-15T01:09:29;12.10;99.90
23156;DHT22;11746;50.876;4.246;2022-11-15T01:11:55;12.00;99.90
23156;DHT22;11746;50.876;4.246;2022-11-15T01:14:24;12.00;99.90
23156;DHT22;11746;50.876;4.246;2022-11-15T01:16:52;12.00;99.90
23156;DHT22;11746;50.876;4.246;2022-11-15T01:19:17;12.00;99.90
23156;DHT22;11746;50.876;4.246;2022-11-15T01:21:43;12.00;99.90
23156;DHT22;11746;50.876;4.246;2022-11-15T01:24:12;12.10;99.90
23156;DHT22;11746;50.876;4.246;2022-11-15T01:26:39;12.00;99.90
23156;DHT22;11746;50.876;4.246;2022-11-15T01:29:04;12.00;99.90
23156;DHT22;11746;50.876;4.246;2022-11-15T01:31:30;12.10;99.90
23156;DHT22;11746;50.876;4.246;2022-11-15T01:33:55;12.20;99.90
23156;DHT22;11746;50.876;4.246;2022-11-15T01:36:22;12.20;99.90
23156;DHT22;11746;50.876;4.246;2022-11-15T01:38:53;12.20;99.90
23156;DHT22;11746;50.876;4.246;2022-11-15T01:41:25;12.10;99.90
23156;DHT22;11746;50.876;4.246;2022-11-15T01:47:01;12.10;99.90
23156;DHT22;11746;50.876;4.246;2022-11-15T01:49:30;12.10;99.90
23156;DHT22;11746;50.876;4.246;2022-11-15T01:51:59;12.10;99.90
23156;DHT22;11746;50.876;4.246;2022-11-15T01:54:26;12.00;99.90
23156;DHT22;11746;50.876;4.246;2022-11-15T01:57:06;12.00;99.90
23156;DHT22;11746;50.876;4.246;2022-11-15T01:59:33;11.90;99.90
23156;DHT22;11746;50.876;4.246;2022-11-15T02:01:59;11.90;99.90
23156;DHT22;11746;50.876;4.246;2022-11-15T02:04:31;11.90;99.90
23156;DHT22;11746;50.876;4.246;2022-11-15T02:07:00;11.80;99.90
23156;DHT22;11746;50.876;4.246;2022-11-15T02:09:27;11.90;99.90
23156;DHT22;11746;50.876;4.246;2022-11-15T02:11:54;11.90;99.90
23156;DHT22;11746;50.876;4.246;2022-11-15T02:14:24;11.90;99.90
23156;DHT22;11746;50.876;4.246;2022-11-15T02:28:43;11.90;99.90
23156;DHT22;11746;50.876;4.246;2022-11-15T02:31:30;11.90;99.90
23156;DHT22;11746;50.876;4.246;2022-11-15T02:40:11;11.90;99.90
23156;DHT22;11746;50.876;4.246;2022-11-15T02:42:55;11.90;99.90
23156;DHT22;11746;50.876;4.246;2022-11-15T02:45:47;12.00;99.90
23156;DHT22;11746;50.876;4.246;2022-11-15T02:48:15;12.10;99.90
23156;DHT22;11746;50.876;4.246;2022-11-15T02:50:44;12.00;99.90
23156;DHT22;11746;50.876;4.246;2022-11-15T02:53:10;11.90;99.90
23156;DHT22;11746;50.876;4.246;2022-11-15T02:55:38;12.00;99.90
23156;DHT22;11746;50.876;4.246;2022-11-15T03:06:19;12.00;99.90
23156;DHT22;11746;50.876;4.246;2022-11-15T03:09:12;12.00;99.90
23156;DHT22;11746;50.876;4.246;2022-11-15T03:11:46;12.00;99.90
23156;DHT22;11746;50.876;4.246;2022-11-15T03:14:31;11.90;99.90
23156;DHT22;11746;50.876;4.246;2022-11-15T03:19:41;12.00;99.90
23156;DHT22;11746;50.876;4.246;2022-11-15T03:22:15;12.10;99.90
23156;DHT22;11746;50.876;4.246;2022-11-15T03:24:47;12.20;99.90
23156;DHT22;11746;50.876;4.246;2022-11-15T03:27:21;12.10;99.90
23156;DHT22;11746;50.876;4.246;2022-11-15T03:29:54;12.00;99.90
23156;DHT22;11746;50.876;4.246;2022-11-15T03:32:26;11.90;99.90
23156;DHT22;11746;50.876;4.246;2022-11-15T03:35:00;11.80;99.90
23156;DHT22;11746;50.876;4.246;2022-11-15T03:40:30;11.80;99.90
23156;DHT22;11746;50.876;4.246;2022-11-15T03:46:14;11.60;99.90
23156;DHT22;11746;50.876;4.246;2022-11-15T03:48:50;11.60;99.90
23156;DHT22;11746;50.876;4.246;2022-11-15T03:51:18;11.60;99.90
23156;DHT22;11746;50.876;4.246;2022-11-15T03:53:43;11.70;99.90
23156;DHT22;11746;50.876;4.246;2022-11-15T03:56:09;11.70;99.90
23156;DHT22;11746;50.876;4.246;2022-11-15T03:58:35;11.70;99.90
23156;DHT22;11746;50.876;4.246;2022-11-15T04:01:03;11.70;99.90
23156;DHT22;11746;50.876;4.246;2022-11-15T04:03:29;11.70;99.90
23156;DHT22;11746;50.876;4.246;2022-11-15T04:05:54;11.70;99.90
23156;DHT22;11746;50.876;4.246;2022-11-15T04:08:23;11.60;99.90
23156;DHT22;11746;50.876;4.246;2022-11-15T04:10:49;11.60;99.90
23156;DHT22;11746;50.876;4.246;2022-11-15T04:13:15;11.60;99.90
23156;DHT22;11746;50.876;4.246;2022-11-15T04:15:41;11.70;99.90
23156;DHT22;11746;50.876;4.246;2022-11-15T04:18:06;11.80;99.90
23156;DHT22;11746;50.876;4.246;2022-11-15T04:20:32;11.80;99.90
23156;DHT22;11746;50.876;4.246;2022-11-15T04:23:22;11.80;99.90
23156;DHT22;11746;50.876;4.246;2022-11-15T04:26:11;11.70;99.90
23156;DHT22;11746;50.876;4.246;2022-11-15T04:28:38;11.80;99.90
23156;DHT22;11746;50.876;4.246;2022-11-15T04:31:22;11.80;99.90
23156;DHT22;11746;50.876;4.246;2022-11-15T04:33:48;11.70;99.90
23156;DHT22;11746;50.876;4.246;2022-11-15T04:36:16;11.70;99.90
23156;DHT22;11746;50.876;4.246;2022-11-15T04:39:00;11.60;99.90
23156;DHT22;11746;50.876;4.246;2022-11-15T04:41:27;11.60;99.90
23156;DHT22;11746;50.876;4.246;2022-11-15T04:43:58;11.50;99.90
23156;DHT22;11746;50.876;4.246;2022-11-15T04:46:24;11.60;99.90
23156;DHT22;11746;50.876;4.246;2022-11-15T04:48:52;11.60;99.90
23156;DHT22;11746;50.876;4.246;2022-11-15T04:51:19;11.60;99.90
23156;DHT22;11746;50.876;4.246;2022-11-15T04:53:45;11.60;99.90
23156;DHT22;11746;50.876;4.246;2022-11-15T04:56:11;11.40;99.90
23156;DHT22;11746;50.876;4.246;2022-11-15T04:58:37;11.30;99.90
23156;DHT22;11746;50.876;4.246;2022-11-15T05:01:13;11.30;99.90
23156;DHT22;11746;50.876;4.246;2022-11-15T05:03:59;11.20;99.90
23156;DHT22;11746;50.876;4.246;2022-11-15T05:06:43;11.10;99.90
23156;DHT22;11746;50.876;4.246;2022-11-15T05:09:11;11.10;99.90
23156;DHT22;11746;50.876;4.246;2022-11-15T05:11:42;11.10;99.90
23156;DHT22;11746;50.876;4.246;2022-11-15T05:14:07;11.00;99.90
23156;DHT22;11746;50.876;4.246;2022-11-15T05:16:35;11.10;99.90
23156;DHT22;11746;50.876;4.246;2022-11-15T05:19:04;11.20;99.90
23156;DHT22;11746;50.876;4.246;2022-11-15T05:21:33;11.10;99.90
23156;DHT22;11746;50.876;4.246;2022-11-15T05:23:59;11.00;99.90
23156;DHT22;11746;50.876;4.246;2022-11-15T05:26:25;10.90;99.90
23156;DHT22;11746;50.876;4.246;2022-11-15T05:28:56;10.90;99.90
23156;DHT22;11746;50.876;4.246;2022-11-15T05:31:23;11.00;99.90
23156;DHT22;11746;50.876;4.246;2022-11-15T05:33:51;10.90;99.90
23156;DHT22;11746;50.876;4.246;2022-11-15T05:36:37;10.90;99.90
23156;DHT22;11746;50.876;4.246;2022-11-15T05:39:03;10.90;99.90
23156;DHT22;11746;50.876;4.246;2022-11-15T05:41:33;10.80;99.90
23156;DHT22;11746;50.876;4.246;2022-11-15T05:44:01;10.80;99.90
23156;DHT22;11746;50.876;4.246;2022-11-15T05:46:28;10.90;99.90
23156;DHT22;11746;50.876;4.246;2022-11-15T05:48:54;10.80;99.90
23156;DHT22;11746;50.876;4.246;2022-11-15T05:51:22;10.70;99.90
23156;DHT22;11746;50.876;4.246;2022-11-15T05:53:49;10.60;99.90
23156;DHT22;11746;50.876;4.246;2022-11-15T05:56:15;10.60;99.90
23156;DHT22;11746;50.876;4.246;2022-11-15T05:58:42;10.60;99.90
23156;DHT22;11746;50.876;4.246;2022-11-15T06:01:08;10.60;99.90
23156;DHT22;11746;50.876;4.246;2022-11-15T06:03:34;10.60;99.90
23156;DHT22;11746;50.876;4.246;2022-11-15T06:06:02;10.70;99.90
23156;DHT22;11746;50.876;4.246;2022-11-15T06:08:28;10.70;99.90
23156;DHT22;11746;50.876;4.246;2022-11-15T06:10:53;10.70;99.90
23156;DHT22;11746;50.876;4.246;2022-11-15T06:13:21;10.60;99.90
23156;DHT22;11746;50.876;4.246;2022-11-15T06:15:49;10.60;99.90
23156;DHT22;11746;50.876;4.246;2022-11-15T06:18:18;10.60;99.90
23156;DHT22;11746;50.876;4.246;2022-11-15T06:20:43;10.60;99.90
23156;DHT22;11746;50.876;4.246;2022-11-15T06:23:11;10.40;99.90
23156;DHT22;11746;50.876;4.246;2022-11-15T06:25:40;10.60;99.90
23156;DHT22;11746;50.876;4.246;2022-11-15T06:28:06;10.50;99.90
23156;DHT22;11746;50.876;4.246;2022-11-15T06:30:32;10.50;99.90
23156;DHT22;11746;50.876;4.246;2022-11-15T06:33:04;10.50;99.90
23156;DHT22;11746;50.876;4.246;2022-11-15T06:35:32;10.50;99.90
23156;DHT22;11746;50.876;4.246;2022-11-15T06:38:03;10.50;99.90
23156;DHT22;11746;50.876;4.246;2022-11-15T06:40:28;10.40;99.90
23156;DHT22;11746;50.876;4.246;2022-11-15T06:42:58;10.40;99.90
23156;DHT22;11746;50.876;4.246;2022-11-15T06:45:25;10.40;99.90
23156;DHT22;11746;50.876;4.246;2022-11-15T06:47:51;10.30;99.90
23156;DHT22;11746;50.876;4.246;2022-11-15T06:50:17;10.30;99.90
23156;DHT22;11746;50.876;4.246;2022-11-15T06:52:47;10.30;99.90
23156;DHT22;11746;50.876;4.246;2022-11-15T06:55:13;10.30;99.90
23156;DHT22;11746;50.876;4.246;2022-11-15T06:57:52;10.30;99.90
23156;DHT22;11746;50.876;4.246;2022-11-15T07:00:19;10.30;99.90
23156;DHT22;11746;50.876;4.246;2022-11-15T07:02:46;10.30;99.90
23156;DHT22;11746;50.876;4.246;2022-11-15T07:05:13;10.30;99.90
23156;DHT22;11746;50.876;4.246;2022-11-15T07:07:40;10.30;99.90
23156;DHT22;11746;50.876;4.246;2022-11-15T07:10:06;10.40;99.90
23156;DHT22;11746;50.876;4.246;2022-11-15T07:12:32;10.40;99.90
23156;DHT22;11746;50.876;4.246;2022-11-15T07:15:00;10.40;99.90
23156;DHT22;11746;50.876;4.246;2022-11-15T07:17:26;10.30;99.90
23156;DHT22;11746;50.876;4.246;2022-11-15T07:19:55;10.20;99.90
23156;DHT22;11746;50.876;4.246;2022-11-15T07:22:21;10.20;99.90
23156;DHT22;11746;50.876;4.246;2022-11-15T07:24:46;10.20;99.90
23156;DHT22;11746;50.876;4.246;2022-11-15T07:27:12;10.20;99.90
23156;DHT22;11746;50.876;4.246;2022-11-15T07:29:40;10.20;99.90
23156;DHT22;11746;50.876;4.246;2022-11-15T07:32:06;10.20;99.90
23156;DHT22;11746;50.876;4.246;2022-11-15T07:34:33;10.30;99.90
23156;DHT22;11746;50.876;4.246;2022-11-15T07:37:00;10.30;99.90
23156;DHT22;11746;50.876;4.246;2022-11-15T07:39:25;10.40;99.90
23156;DHT22;11746;50.876;4.246;2022-11-15T07:41:51;10.40;99.90
23156;DHT22;11746;50.876;4.246;2022-11-15T07:44:36;10.30;99.90
23156;DHT22;11746;50.876;4.246;2022-11-15T07:47:02;10.30;99.90
23156;DHT22;11746;50.876;4.246;2022-11-15T07:49:30;10.20;99.90
23156;DHT22;11746;50.876;4.246;2022-11-15T07:51:55;10.30;99.90
23156;DHT22;11746;50.876;4.246;2022-11-15T07:54:21;10.40;99.90
23156;DHT22;11746;50.876;4.246;2022-11-15T07:56:47;10.30;99.90
23156;DHT22;11746;50.876;4.246;2022-11-15T07:59:15;10.20;99.90
23156;DHT22;11746;50.876;4.246;2022-11-15T08:01:41;10.30;99.90
23156;DHT22;11746;50.876;4.246;2022-11-15T08:04:07;10.30;99.90
23156;DHT22;11746;50.876;4.246;2022-11-15T08:06:33;10.40;99.90
23156;DHT22;11746;50.876;4.246;2022-11-15T08:09:01;10.40;99.90
23156;DHT22;11746;50.876;4.246;2022-11-15T08:11:29;10.60;99.90
23156;DHT22;11746;50.876;4.246;2022-11-15T08:13:54;10.60;99.90
23156;DHT22;11746;50.876;4.246;2022-11-15T08:16:20;10.50;99.90
23156;DHT22;11746;50.876;4.246;2022-11-15T08:18:46;10.50;99.90
23156;DHT22;11746;50.876;4.246;2022-11-15T08:21:14;10.60;99.90
23156;DHT22;11746;50.876;4.246;2022-11-15T08:23:41;10.60;99.90
23156;DHT22;11746;50.876;4.246;2022-11-15T08:26:09;10.60;99.90
23156;DHT22;11746;50.876;4.246;2022-11-15T08:28:35;10.60;99.90
23156;DHT22;11746;50.876;4.246;2022-11-15T08:31:03;10.70;99.90
23156;DHT22;11746;50.876;4.246;2022-11-15T08:33:30;10.70;99.90
23156;DHT22;11746;50.876;4.246;2022-11-15T08:36:00;10.70;99.90
23156;DHT22;11746;50.876;4.246;2022-11-15T08:38:26;10.60;99.90
23156;DHT22;11746;50.876;4.246;2022-11-15T08:41:00;10.70;99.90
23156;DHT22;11746;50.876;4.246;2022-11-15T08:43:27;10.70;99.90
23156;DHT22;11746;50.876;4.246;2022-11-15T08:45:56;10.70;99.90
23156;DHT22;11746;50.876;4.246;2022-11-15T08:48:21;10.90;99.90
23156;DHT22;11746;50.876;4.246;2022-11-15T08:50:51;10.90;99.90
23156;DHT22;11746;50.876;4.246;2022-11-15T08:53:18;10.90;99.90
23156;DHT22;11746;50.876;4.246;2022-11-15T08:55:44;10.80;99.90
23156;DHT22;11746;50.876;4.246;2022-11-15T08:58:10;10.90;99.90
23156;DHT22;11746;50.876;4.246;2022-11-15T09:00:36;10.90;99.90
23156;DHT22;11746;50.876;4.246;2022-11-15T09:03:06;10.90;99.90
23156;DHT22;11746;50.876;4.246;2022-11-15T09:05:38;10.90;99.90
23156;DHT22;11746;50.876;4.246;2022-11-15T09:08:04;11.00;99.90
23156;DHT22;11746;50.876;4.246;2022-11-15T09:10:30;11.00;99.90
23156;DHT22;11746;50.876;4.246;2022-11-15T09:12:59;11.00;99.90
23156;DHT22;11746;50.876;4.246;2022-11-15T09:15:24;11.10;99.90
23156;DHT22;11746;50.876;4.246;2022-11-15T09:17:50;11.10;99.90
23156;DHT22;11746;50.876;4.246;2022-11-15T09:20:15;11.20;99.90
23156;DHT22;11746;50.876;4.246;2022-11-15T09:22:41;11.30;99.90
23156;DHT22;11746;50.876;4.246;2022-11-15T09:25:07;11.40;99.90
23156;DHT22;11746;50.876;4.246;2022-11-15T09:27:36;11.50;99.90
23156;DHT22;11746;50.876;4.246;2022-11-15T09:30:02;11.50;99.90
23156;DHT22;11746;50.876;4.246;2022-11-15T09:32:28;11.50;99.90
23156;DHT22;11746;50.876;4.246;2022-11-15T09:34:55;11.50;99.90
23156;DHT22;11746;50.876;4.246;2022-11-15T09:37:21;11.60;99.90
23156;DHT22;11746;50.876;4.246;2022-11-15T09:39:46;11.70;99.90
23156;DHT22;11746;50.876;4.246;2022-11-15T09:51:14;11.90;99.90
23156;DHT22;11746;50.876;4.246;2022-11-15T09:53:51;11.90;99.90
23156;DHT22;11746;50.876;4.246;2022-11-15T09:56:26;12.00;99.90
23156;DHT22;11746;50.876;4.246;2022-11-15T10:04:33;12.00;99.90
23156;DHT22;11746;50.876;4.246;2022-11-15T10:09:51;12.10;99.90
23156;DHT22;11746;50.876;4.246;2022-11-15T10:12:25;12.10;99.90
23156;DHT22;11746;50.876;4.246;2022-11-15T10:14:58;12.20;99.90
23156;DHT22;11746;50.876;4.246;2022-11-15T10:20:05;12.40;99.90
23156;DHT22;11746;50.876;4.246;2022-11-15T10:22:54;12.50;99.90
23156;DHT22;11746;50.876;4.246;2022-11-15T10:25:27;12.50;99.90
23156;DHT22;11746;50.876;4.246;2022-11-15T10:30:33;12.40;99.90
23156;DHT22;11746;50.876;4.246;2022-11-15T10:33:53;12.60;99.90
23156;DHT22;11746;50.876;4.246;2022-11-15T10:38:52;12.70;99.90
23156;DHT22;11746;50.876;4.246;2022-11-15T10:46:34;12.80;99.90
23156;DHT22;11746;50.876;4.246;2022-11-15T10:51:49;12.90;99.90
23156;DHT22;11746;50.876;4.246;2022-11-15T10:54:23;12.80;99.90
23156;DHT22;11746;50.876;4.246;2022-11-15T10:56:54;12.90;99.90
23156;DHT22;11746;50.876;4.246;2022-11-15T10:59:27;12.90;99.90
23156;DHT22;11746;50.876;4.246;2022-11-15T11:01:53;12.90;99.90
23156;DHT22;11746;50.876;4.246;2022-11-15T11:04:19;12.80;99.90
23156;DHT22;11746;50.876;4.246;2022-11-15T11:06:50;12.80;99.90
23156;DHT22;11746;50.876;4.246;2022-11-15T11:11:57;12.80;99.90
23156;DHT22;11746;50.876;4.246;2022-11-15T11:14:28;12.90;99.90
23156;DHT22;11746;50.876;4.246;2022-11-15T11:36:54;13.40;99.90
23156;DHT22;11746;50.876;4.246;2022-11-15T11:47:32;13.30;99.90
23156;DHT22;11746;50.876;4.246;2022-11-15T11:50:20;13.20;99.90
23156;DHT22;11746;50.876;4.246;2022-11-15T11:53:12;13.30;99.90
23156;DHT22;11746;50.876;4.246;2022-11-15T11:55:59;13.20;99.90
23156;DHT22;11746;50.876;4.246;2022-11-15T11:58:44;13.30;99.90
23156;DHT22;11746;50.876;4.246;2022-11-15T12:01:20;13.20;99.90
23156;DHT22;11746;50.876;4.246;2022-11-15T12:04:00;13.40;99.90
23156;DHT22;11746;50.876;4.246;2022-11-15T12:12:09;13.30;99.90
23156;DHT22;11746;50.876;4.246;2022-11-15T12:15:00;13.20;99.90
23156;DHT22;11746;50.876;4.246;2022-11-15T12:17:29;13.20;99.90
23156;DHT22;11746;50.876;4.246;2022-11-15T12:20:04;13.20;99.90
23156;DHT22;11746;50.876;4.246;2022-11-15T12:28:11;13.20;99.90
23156;DHT22;11746;50.876;4.246;2022-11-15T12:30:45;13.30;99.90
23156;DHT22;11746;50.876;4.246;2022-11-15T12:36:08;13.30;99.90
23156;DHT22;11746;50.876;4.246;2022-11-15T12:41:17;13.40;99.90
23156;DHT22;11746;50.876;4.246;2022-11-15T12:43:44;13.30;99.90
23156;DHT22;11746;50.876;4.246;2022-11-15T12:46:19;13.50;99.90
23156;DHT22;11746;50.876;4.246;2022-11-15T12:48:52;13.50;99.90
23156;DHT22;11746;50.876;4.246;2022-11-15T12:59:53;13.70;99.90
23156;DHT22;11746;50.876;4.246;2022-11-15T13:02:33;13.70;99.90
23156;DHT22;11746;50.876;4.246;2022-11-15T13:17:44;13.70;99.90
23156;DHT22;11746;50.876;4.246;2022-11-15T13:31:03;13.50;99.90
23156;DHT22;11746;50.876;4.246;2022-11-15T13:33:39;13.50;99.90
23156;DHT22;11746;50.876;4.246;2022-11-15T13:36:20;13.50;99.90
23156;DHT22;11746;50.876;4.246;2022-11-15T13:38:55;13.60;99.90
23156;DHT22;11746;50.876;4.246;2022-11-15T13:41:27;13.60;99.90
23156;DHT22;11746;50.876;4.246;2022-11-15T13:43:56;13.60;99.90
23156;DHT22;11746;50.876;4.246;2022-11-15T13:46:25;13.70;99.90
23156;DHT22;11746;50.876;4.246;2022-11-15T13:48:57;13.70;99.90
23156;DHT22;11746;50.876;4.246;2022-11-15T13:54:24;13.70;99.90
23156;DHT22;11746;50.876;4.246;2022-11-15T13:56:52;13.80;99.90
23156;DHT22;11746;50.876;4.246;2022-11-15T13:59:28;13.70;99.90
23156;DHT22;11746;50.876;4.246;2022-11-15T14:02:01;13.70;99.90
23156;DHT22;11746;50.876;4.246;2022-11-15T14:04:28;13.60;99.90
23156;DHT22;11746;50.876;4.246;2022-11-15T14:06:59;13.60;99.90
23156;DHT22;11746;50.876;4.246;2022-11-15T14:11:58;13.60;99.90
23156;DHT22;11746;50.876;4.246;2022-11-15T14:14:27;13.60;99.90
23156;DHT22;11746;50.876;4.246;2022-11-15T14:16:55;13.60;99.90
23156;DHT22;11746;50.876;4.246;2022-11-15T14:24:34;13.60;99.90
23156;DHT22;11746;50.876;4.246;2022-11-15T14:27:20;13.50;99.90
23156;DHT22;11746;50.876;4.246;2022-11-15T14:29:47;13.50;99.90
23156;DHT22;11746;50.876;4.246;2022-11-15T14:32:15;13.50;99.90
23156;DHT22;11746;50.876;4.246;2022-11-15T14:34:45;13.40;99.90
23156;DHT22;11746;50.876;4.246;2022-11-15T14:37:30;13.40;99.90
23156;DHT22;11746;50.876;4.246;2022-11-15T14:39:59;13.30;99.90
23156;DHT22;11746;50.876;4.246;2022-11-15T14:42:25;13.20;99.90
23156;DHT22;11746;50.876;4.246;2022-11-15T14:44:51;13.30;99.90
23156;DHT22;11746;50.876;4.246;2022-11-15T14:47:18;13.20;99.90
23156;DHT22;11746;50.876;4.246;2022-11-15T14:49:47;13.20;99.90
23156;DHT22;11746;50.876;4.246;2022-11-15T14:52:32;13.10;99.90
23156;DHT22;11746;50.876;4.246;2022-11-15T14:55:13;13.00;99.90
23156;DHT22;11746;50.876;4.246;2022-11-15T14:57:40;13.10;99.90
23156;DHT22;11746;50.876;4.246;2022-11-15T15:00:06;13.00;99.90
23156;DHT22;11746;50.876;4.246;2022-11-15T15:02:32;13.00;99.90
23156;DHT22;11746;50.876;4.246;2022-11-15T15:04:58;12.90;99.90
23156;DHT22;11746;50.876;4.246;2022-11-15T15:07:26;13.00;99.90
23156;DHT22;11746;50.876;4.246;2022-11-15T15:09:52;13.10;99.90
23156;DHT22;11746;50.876;4.246;2022-11-15T15:12:22;13.10;99.90
23156;DHT22;11746;50.876;4.246;2022-11-15T15:14:50;13.00;99.90
23156;DHT22;11746;50.876;4.246;2022-11-15T15:17:18;13.00;99.90
23156;DHT22;11746;50.876;4.246;2022-11-15T15:19:46;12.90;99.90
23156;DHT22;11746;50.876;4.246;2022-11-15T15:22:16;12.80;99.90
23156;DHT22;11746;50.876;4.246;2022-11-15T15:24:43;12.80;99.90
23156;DHT22;11746;50.876;4.246;2022-11-15T15:27:12;12.90;99.90
23156;DHT22;11746;50.876;4.246;2022-11-15T15:29:39;13.00;99.90
23156;DHT22;11746;50.876;4.246;2022-11-15T15:32:05;12.90;99.90
23156;DHT22;11746;50.876;4.246;2022-11-15T15:34:33;12.90;99.90
23156;DHT22;11746;50.876;4.246;2022-11-15T15:37:22;12.90;99.90
23156;DHT22;11746;50.876;4.246;2022-11-15T15:39:50;12.80;99.90
23156;DHT22;11746;50.876;4.246;2022-11-15T15:42:18;12.90;99.90
23156;DHT22;11746;50.876;4.246;2022-11-15T15:44:48;12.90;99.90
23156;DHT22;11746;50.876;4.246;2022-11-15T15:47:20;12.90;99.90
23156;DHT22;11746;50.876;4.246;2022-11-15T15:49:47;12.90;99.90
23156;DHT22;11746;50.876;4.246;2022-11-15T15:52:16;12.80;99.90
23156;DHT22;11746;50.876;4.246;2022-11-15T15:54:44;12.70;99.90
23156;DHT22;11746;50.876;4.246;2022-11-15T15:57:13;12.70;99.90
23156;DHT22;11746;50.876;4.246;2022-11-15T15:59:41;12.60;99.90
23156;DHT22;11746;50.876;4.246;2022-11-15T16:02:14;12.60;99.90
23156;DHT22;11746;50.876;4.246;2022-11-15T16:04:43;12.70;99.90
23156;DHT22;11746;50.876;4.246;2022-11-15T16:07:21;12.70;99.90
23156;DHT22;11746;50.876;4.246;2022-11-15T16:09:49;12.70;99.90
23156;DHT22;11746;50.876;4.246;2022-11-15T16:12:28;12.70;99.90
23156;DHT22;11746;50.876;4.246;2022-11-15T16:14:54;12.70;99.90
23156;DHT22;11746;50.876;4.246;2022-11-15T16:17:24;12.60;99.90
23156;DHT22;11746;50.876;4.246;2022-11-15T16:19:50;12.70;99.90
23156;DHT22;11746;50.876;4.246;2022-11-15T16:22:18;12.70;99.90
23156;DHT22;11746;50.876;4.246;2022-11-15T16:24:44;12.60;99.90
23156;DHT22;11746;50.876;4.246;2022-11-15T16:27:20;12.70;99.90
23156;DHT22;11746;50.876;4.246;2022-11-15T16:29:48;12.60;99.90
23156;DHT22;11746;50.876;4.246;2022-11-15T16:32:15;12.60;99.90
23156;DHT22;11746;50.876;4.246;2022-11-15T16:34:41;12.70;99.90
23156;DHT22;11746;50.876;4.246;2022-11-15T16:37:23;12.70;99.90
23156;DHT22;11746;50.876;4.246;2022-11-15T16:39:51;12.80;99.90
23156;DHT22;11746;50.876;4.246;2022-11-15T16:42:17;12.80;99.90
23156;DHT22;11746;50.876;4.246;2022-11-15T16:44:46;12.80;99.90
23156;DHT22;11746;50.876;4.246;2022-11-15T16:47:17;12.80;99.90
23156;DHT22;11746;50.876;4.246;2022-11-15T16:49:43;12.80;99.90
23156;DHT22;11746;50.876;4.246;2022-11-15T16:52:14;12.80;99.90
23156;DHT22;11746;50.876;4.246;2022-11-15T16:54:40;12.80;99.90
23156;DHT22;11746;50.876;4.246;2022-11-15T16:57:10;12.70;99.90
23156;DHT22;11746;50.876;4.246;2022-11-15T16:59:38;12.70;99.90
23156;DHT22;11746;50.876;4.246;2022-11-15T17:02:07;12.70;99.90
23156;DHT22;11746;50.876;4.246;2022-11-15T17:04:34;12.70;99.90
23156;DHT22;11746;50.876;4.246;2022-11-15T17:07:00;12.70;99.90
23156;DHT22;11746;50.876;4.246;2022-11-15T17:09:26;12.70;99.90
23156;DHT22;11746;50.876;4.246;2022-11-15T17:11:54;12.70;99.90
23156;DHT22;11746;50.876;4.246;2022-11-15T17:14:22;12.80;99.90
23156;DHT22;11746;50.876;4.246;2022-11-15T17:16:48;12.70;99.90
23156;DHT22;11746;50.876;4.246;2022-11-15T17:19:20;12.80;99.90
23156;DHT22;11746;50.876;4.246;2022-11-15T17:21:47;12.70;99.90
23156;DHT22;11746;50.876;4.246;2022-11-15T17:24:14;12.70;99.90
23156;DHT22;11746;50.876;4.246;2022-11-15T17:26:40;12.80;99.90
23156;DHT22;11746;50.876;4.246;2022-11-15T17:29:07;12.80;99.90
23156;DHT22;11746;50.876;4.246;2022-11-15T17:31:34;12.80;99.90
23156;DHT22;11746;50.876;4.246;2022-11-15T17:34:03;12.80;99.90
23156;DHT22;11746;50.876;4.246;2022-11-15T17:36:29;12.80;99.90
23156;DHT22;11746;50.876;4.246;2022-11-15T17:38:55;12.70;99.90
23156;DHT22;11746;50.876;4.246;2022-11-15T17:41:21;12.70;99.90
23156;DHT22;11746;50.876;4.246;2022-11-15T17:43:50;12.60;99.90
23156;DHT22;11746;50.876;4.246;2022-11-15T17:46:18;12.60;99.90
23156;DHT22;11746;50.876;4.246;2022-11-15T17:48:44;12.70;99.90
23156;DHT22;11746;50.876;4.246;2022-11-15T17:51:15;12.70;99.90
23156;DHT22;11746;50.876;4.246;2022-11-15T17:53:43;12.70;99.90
23156;DHT22;11746;50.876;4.246;2022-11-15T17:56:14;12.70;99.90
23156;DHT22;11746;50.876;4.246;2022-11-15T17:58:45;12.60;99.90
23156;DHT22;11746;50.876;4.246;2022-11-15T18:01:24;12.60;99.90
23156;DHT22;11746;50.876;4.246;2022-11-15T18:03:53;12.70;99.90
23156;DHT22;11746;50.876;4.246;2022-11-15T18:06:20;12.70;99.90
23156;DHT22;11746;50.876;4.246;2022-11-15T18:08:48;12.70;99.90
23156;DHT22;11746;50.876;4.246;2022-11-15T18:11:17;12.80;99.90
23156;DHT22;11746;50.876;4.246;2022-11-15T18:13:45;12.70;99.90
23156;DHT22;11746;50.876;4.246;2022-11-15T18:16:15;12.60;99.90
23156;DHT22;11746;50.876;4.246;2022-11-15T18:18:44;12.60;99.90
23156;DHT22;11746;50.876;4.246;2022-11-15T18:21:13;12.60;99.90
23156;DHT22;11746;50.876;4.246;2022-11-15T18:23:41;12.70;99.90
23156;DHT22;11746;50.876;4.246;2022-11-15T18:26:09;12.80;99.90